Time,TemperatureF,DewpointF,PressureIn,WindDirection,WindDirectionDegrees,WindSpeedMPH,WindSpeedGustMPH,Humidity,HourlyPrecipIn,Conditions,Clouds,dailyrainin,SoftwareType,DateUTC
2013-03-25 09:03:00,24.0,16.0,30.10,NNW,347,327.0,327.0,71,0.00,,,0.00,,2013-03-25 14:03:00,
2013-03-25 09:12:00,24.0,16.0,30.10,NNW,347,327.0,327.0,71,0.00,,,0.00,,2013-03-25 14:12:00,
2013-03-25 09:22:00,24.0,15.0,30.10,NNE,23,7.0,10.0,69,0.00,,,0.00,,2013-03-25 14:22:00,
2013-03-25 09:32:00,25.0,16.0,30.10,North,9,6.0,9.0,68,0.00,,,0.00,,2013-03-25 14:32:00,
2013-03-25 09:42:00,25.0,16.0,30.10,North,9,6.0,9.0,68,0.00,,,0.00,,2013-03-25 14:42:00,
2013-03-25 09:53:00,25.0,16.0,30.10,North,357,7.0,10.0,67,0.00,,,0.00,,2013-03-25 14:53:00,
2013-03-25 10:02:00,26.0,16.0,30.11,NE,42,5.0,10.0,66,0.00,,,0.00,,2013-03-25 15:02:00,
2013-03-25 10:12:00,26.0,16.0,30.11,NE,42,5.0,10.0,66,0.00,,,0.00,,2013-03-25 15:12:00,
2013-03-25 10:22:00,27.0,17.0,30.11,North,3,5.0,11.0,65,0.00,,,0.00,,2013-03-25 15:22:00,
2013-03-25 10:32:00,28.0,17.0,30.11,NNW,332,5.0,9.0,63,0.00,,,0.00,,2013-03-25 15:32:00,
2013-03-25 10:42:00,28.0,17.0,30.11,NNW,332,5.0,9.0,63,0.00,,,0.00,,2013-03-25 15:42:00,
2013-03-25 10:53:00,29.0,18.0,30.11,NNE,25,8.0,12.0,62,0.00,,,0.00,,2013-03-25 15:53:00,
2013-03-25 11:03:00,30.0,18.0,30.11,NE,40,7.0,12.0,61,0.00,,,0.00,,2013-03-25 16:03:00,
2013-03-25 11:12:00,30.0,18.0,30.11,NE,40,7.0,12.0,61,0.00,,,0.00,,2013-03-25 16:12:00,
2013-03-25 11:23:00,30.0,18.0,30.11,NE,40,7.0,12.0,61,0.00,,,0.00,,2013-03-25 16:23:00,
2013-03-25 11:33:00,31.0,18.0,30.12,NE,40,7.0,14.0,59,0.00,,,0.00,,2013-03-25 16:33:00,
2013-03-25 11:43:00,31.0,18.0,30.12,NE,40,7.0,14.0,59,0.00,,,0.00,,2013-03-25 16:43:00,
2013-03-25 11:53:00,32.0,19.0,30.12,NNE,32,6.0,11.0,58,0.00,,,0.00,,2013-03-25 16:53:00,
2013-03-25 12:02:00,32.0,19.0,30.12,NE,37,6.0,13.0,57,0.00,,,0.00,,2013-03-25 17:02:00,
2013-03-25 12:12:00,32.0,19.0,30.12,NE,37,6.0,13.0,57,0.00,,,0.00,,2013-03-25 17:12:00,
2013-03-25 12:23:00,32.0,19.0,30.12,NNW,339,9.0,14.0,57,0.00,,,0.00,,2013-03-25 17:23:00,
2013-03-25 12:32:00,34.0,20.0,30.12,NE,42,6.0,12.0,55,0.00,,,0.00,,2013-03-25 17:32:00,
2013-03-25 12:42:00,34.0,20.0,30.12,NE,42,6.0,12.0,55,0.00,,,0.00,,2013-03-25 17:42:00,
2013-03-25 12:53:00,33.0,18.0,30.11,NE,48,10.0,17.0,54,0.00,,,0.00,,2013-03-25 17:53:00,
2013-03-25 13:03:00,34.0,19.0,30.11,NE,55,10.0,17.0,53,0.00,,,0.00,,2013-03-25 18:03:00,
2013-03-25 13:12:00,34.0,19.0,30.11,NE,55,10.0,17.0,53,0.00,,,0.00,,2013-03-25 18:12:00,
2013-03-25 13:23:00,34.0,19.0,30.11,NE,36,13.0,21.0,54,0.00,,,0.00,,2013-03-25 18:23:00,
2013-03-25 13:32:00,34.0,19.0,30.11,NNE,27,13.0,20.0,54,0.00,,,0.00,,2013-03-25 18:32:00,
2013-03-25 13:42:00,34.0,19.0,30.11,NNE,27,13.0,20.0,54,0.00,,,0.00,,2013-03-25 18:42:00,
2013-03-25 13:53:00,34.0,19.0,30.11,NNE,27,13.0,20.0,54,0.00,,,0.00,,2013-03-25 18:53:00,
2013-03-25 14:03:00,34.0,19.0,30.11,NNE,27,13.0,20.0,54,0.00,,,0.00,,2013-03-25 19:03:00,
2013-03-25 14:12:00,34.0,19.0,30.11,NNE,27,13.0,20.0,54,0.00,,,0.00,,2013-03-25 19:12:00,
2013-03-25 16:33:00,36.0,19.0,30.11,North,351,6.0,15.0,49,0.00,,,0.00,,2013-03-25 21:33:00,
2013-03-25 16:43:00,36.0,19.0,30.11,North,351,6.0,15.0,49,0.00,,,0.00,,2013-03-25 21:43:00,
2013-03-25 16:52:00,36.0,19.0,30.11,NE,46,9.0,14.0,49,0.00,,,0.00,,2013-03-25 21:52:00,
2013-03-25 17:03:00,36.0,20.0,30.11,NNW,337,7.0,14.0,51,0.00,,,0.00,,2013-03-25 22:03:00,
2013-03-25 17:12:00,36.0,20.0,30.11,NNW,337,7.0,14.0,51,0.00,,,0.00,,2013-03-25 22:12:00,
2013-03-25 17:23:00,36.0,20.0,30.11,NNE,27,8.0,14.0,51,0.00,,,0.00,,2013-03-25 22:23:00,
2013-03-25 17:33:00,36.0,19.0,30.12,NNW,341,8.0,15.0,50,0.00,,,0.00,,2013-03-25 22:33:00,
2013-03-25 17:42:00,36.0,19.0,30.12,NNW,341,8.0,15.0,50,0.00,,,0.00,,2013-03-25 22:42:00,
2013-03-25 17:52:00,36.0,19.0,30.12,NE,36,6.0,12.0,50,0.00,,,0.00,,2013-03-25 22:52:00,
2013-03-25 18:02:00,36.0,20.0,30.12,NW,315,8.0,14.0,51,0.00,,,0.00,,2013-03-25 23:02:00,
2013-03-25 18:12:00,36.0,20.0,30.12,NW,315,8.0,14.0,51,0.00,,,0.00,,2013-03-25 23:12:00,
2013-03-25 18:23:00,36.0,19.0,30.13,NNE,19,7.0,13.0,50,0.00,,,0.00,,2013-03-25 23:23:00,
2013-03-25 18:32:00,36.0,19.0,30.13,NNE,20,9.0,12.0,50,0.00,,,0.00,,2013-03-25 23:32:00,
2013-03-25 18:42:00,36.0,19.0,30.13,NNE,20,9.0,12.0,50,0.00,,,0.00,,2013-03-25 23:42:00,
2013-03-25 18:53:00,35.0,19.0,30.14,NNW,347,9.0,12.0,51,0.00,,,0.00,,2013-03-25 23:53:00,
2013-03-25 19:02:00,35.0,19.0,30.14,NNE,27,5.0,7.0,52,0.00,,,0.00,,2013-03-26 00:02:00,
2013-03-25 19:12:00,35.0,19.0,30.14,NNE,27,5.0,7.0,52,0.00,,,0.00,,2013-03-26 00:12:00,
2013-03-25 19:22:00,35.0,20.0,30.15,NNE,12,4.0,7.0,53,0.00,,,0.00,,2013-03-26 00:22:00,
2013-03-25 19:32:00,35.0,20.0,30.15,NNE,12,4.0,7.0,53,0.00,,,0.00,,2013-03-26 00:32:00,
2013-03-25 19:42:00,35.0,20.0,30.15,NNE,12,4.0,7.0,53,0.00,,,0.00,,2013-03-26 00:42:00,
2013-03-25 19:52:00,35.0,20.0,30.15,NNE,12,4.0,7.0,53,0.00,,,0.00,,2013-03-26 00:52:00,
2013-03-25 20:02:00,35.0,20.0,30.15,NNE,12,4.0,7.0,53,0.00,,,0.00,,2013-03-26 01:02:00,
2013-03-25 21:52:00,32.0,21.0,30.17,NW,309,0.0,2.0,64,0.00,,,0.00,,2013-03-26 02:52:00,
2013-03-25 22:02:00,32.0,21.0,30.17,North,9,1.0,3.0,64,0.00,,,0.00,,2013-03-26 03:02:00,
2013-03-25 22:12:00,32.0,21.0,30.17,North,9,1.0,3.0,64,0.00,,,0.00,,2013-03-26 03:12:00,
2013-03-25 22:22:00,32.0,21.0,30.18,NNW,347,1.0,3.0,64,0.00,,,0.00,,2013-03-26 03:22:00,
2013-03-25 22:33:00,32.0,21.0,30.18,WNW,301,2.0,5.0,63,0.00,,,0.00,,2013-03-26 03:33:00,
2013-03-25 22:42:00,32.0,21.0,30.18,WNW,301,2.0,5.0,63,0.00,,,0.00,,2013-03-26 03:42:00,
2013-03-25 22:53:00,32.0,21.0,30.18,North,349,3.0,6.0,63,0.00,,,0.00,,2013-03-26 03:53:00,
2013-03-25 23:03:00,32.0,21.0,30.18,NW,321,2.0,6.0,64,0.00,,,0.00,,2013-03-26 04:03:00,
2013-03-25 23:12:00,32.0,21.0,30.18,NW,321,2.0,6.0,64,0.00,,,0.00,,2013-03-26 04:12:00,
2013-03-25 23:23:00,32.0,21.0,30.18,NNW,327,2.0,6.0,64,0.00,,,0.00,,2013-03-26 04:23:00,
2013-03-25 23:32:00,32.0,22.0,30.18,NW,315,1.0,4.0,65,0.00,,,0.00,,2013-03-26 04:32:00,
2013-03-25 23:43:00,32.0,22.0,30.18,NW,315,1.0,4.0,65,0.00,,,0.00,,2013-03-26 04:43:00,
2013-03-25 23:53:00,32.0,22.0,30.18,NNW,342,1.0,5.0,65,0.00,,,0.00,,2013-03-26 04:53:00,